createdAt,value
2022-10-28T00:01:33.227Z,11.20
2022-10-28T00:04:35.421Z,10.90
2022-10-28T00:07:37.533Z,12.75
2022-10-28T00:10:39.692Z,12.95
2022-10-28T00:13:43.792Z,12.48
2022-10-28T00:16:45.902Z,19.42
2022-10-28T00:19:48.066Z,14.63
2022-10-28T00:22:50.244Z,13.88
2022-10-28T00:25:52.422Z,14.90
2022-10-28T00:28:57.043Z,14.15
2022-10-28T00:31:59.188Z,12.90
2022-10-28T00:35:01.263Z,15.85
2022-10-28T00:38:03.433Z,15.00
2022-10-28T00:41:05.832Z,15.60
2022-10-28T00:44:45.654Z,13.73
2022-10-28T00:47:52.630Z,13.38
2022-10-28T00:50:55.438Z,14.87
2022-10-28T00:53:57.594Z,17.75
2022-10-28T00:57:02.479Z,16.67
2022-10-28T01:00:06.531Z,15.80
2022-10-28T01:03:09.790Z,14.73
2022-10-28T01:06:12.060Z,13.30
2022-10-28T01:09:14.601Z,13.45
2022-10-28T01:12:46.099Z,18.23
2022-10-28T01:16:02.656Z,12.48
2022-10-28T01:19:13.580Z,11.88
2022-10-28T01:22:56.660Z,16.50
2022-10-28T01:26:31.101Z,14.63
2022-10-28T01:29:57.277Z,15.43
2022-10-28T01:33:16.587Z,13.75
2022-10-28T01:36:27.988Z,12.95
2022-10-28T01:42:56.163Z,12.45
2022-10-28T01:45:59.790Z,11.65
2022-10-28T01:49:19.096Z,11.60
2022-10-28T01:52:24.595Z,12.70
2022-10-28T01:55:29.249Z,9.13
2022-10-28T01:58:32.215Z,17.92
2022-10-28T02:01:34.778Z,13.05
2022-10-28T02:04:37.018Z,11.57
2022-10-28T02:07:39.270Z,13.40
2022-10-28T02:10:46.632Z,13.15
2022-10-28T02:14:00.996Z,15.10
2022-10-28T02:17:32.849Z,12.45
2022-10-28T02:20:44.069Z,11.15
2022-10-28T02:23:49.401Z,9.57
2022-10-28T02:27:15.928Z,9.55
2022-10-28T02:30:28.858Z,9.18
2022-10-28T02:33:34.948Z,9.07
2022-10-28T02:36:40.595Z,9.15
2022-10-28T02:39:45.452Z,14.43
2022-10-28T02:42:53.270Z,10.05
2022-10-28T02:45:57.829Z,9.73
2022-10-28T02:49:03.894Z,11.43
2022-10-28T02:52:06.729Z,14.60
2022-10-28T02:55:09.068Z,10.65
2022-10-28T02:58:11.522Z,10.57
2022-10-28T03:01:13.963Z,10.02
2022-10-28T03:04:16.234Z,10.60
2022-10-28T03:07:18.409Z,10.90
2022-10-28T03:10:20.528Z,9.82
2022-10-28T03:13:22.691Z,13.75
2022-10-28T03:16:26.712Z,8.57
2022-10-28T03:19:28.875Z,11.00
2022-10-28T03:22:31.058Z,9.15
2022-10-28T03:25:33.193Z,9.57
2022-10-28T03:28:35.425Z,6.50
2022-10-28T03:31:37.593Z,9.80
2022-10-28T03:34:40.053Z,5.53
2022-10-28T03:37:43.732Z,8.20
2022-10-28T03:40:48.904Z,10.80
2022-10-28T03:43:51.718Z,9.35
2022-10-28T03:46:53.821Z,13.75
2022-10-28T03:49:55.956Z,8.60
2022-10-28T03:52:58.116Z,8.90
2022-10-28T03:56:01.593Z,8.70
2022-10-28T03:59:03.757Z,9.90
2022-10-28T04:02:06.018Z,8.73
2022-10-28T04:05:08.613Z,8.65
2022-10-28T04:08:10.938Z,5.50
2022-10-28T04:11:13.116Z,10.85
2022-10-28T04:14:15.462Z,7.37
2022-10-28T04:17:17.625Z,13.38
2022-10-28T04:20:19.860Z,6.90
2022-10-28T04:23:22.050Z,8.55
2022-10-28T04:26:24.188Z,11.82
2022-10-28T04:29:26.385Z,9.32
2022-10-28T04:32:28.600Z,9.23
2022-10-28T04:35:30.753Z,11.63
2022-10-28T04:38:32.914Z,9.63
2022-10-28T04:41:35.154Z,7.53
2022-10-28T04:44:37.325Z,7.57
2022-10-28T04:47:39.490Z,9.95
2022-10-28T04:50:41.707Z,7.72
2022-10-28T04:53:43.891Z,11.45
2022-10-28T04:56:45.996Z,9.65
2022-10-28T04:59:48.132Z,9.05
2022-10-28T05:02:50.575Z,11.18
2022-10-28T05:05:52.764Z,14.50
2022-10-28T05:08:54.970Z,11.82
2022-10-28T05:11:57.171Z,6.93
2022-10-28T05:14:59.342Z,6.22
2022-10-28T05:18:01.567Z,8.20
2022-10-28T05:21:03.929Z,9.50
2022-10-28T05:24:06.468Z,7.95
2022-10-28T05:27:08.646Z,8.93
2022-10-28T05:30:11.540Z,10.45
2022-10-28T05:33:13.678Z,10.68
2022-10-28T05:36:15.996Z,9.65
2022-10-28T05:39:18.367Z,14.35
2022-10-28T05:42:20.652Z,7.82
2022-10-28T05:45:22.841Z,9.85
2022-10-28T05:48:25.063Z,11.35
2022-10-28T05:51:27.184Z,8.52
2022-10-28T05:54:29.428Z,7.25
2022-10-28T05:57:35.273Z,8.30
2022-10-28T06:00:37.440Z,9.98
2022-10-28T06:03:39.599Z,5.45
2022-10-28T06:06:41.819Z,9.05
2022-10-28T06:09:43.936Z,7.62
2022-10-28T06:12:44.538Z,4.43
2022-10-28T06:15:53.742Z,6.85
2022-10-28T06:18:56.003Z,7.97
2022-10-28T06:21:58.169Z,5.30
2022-10-28T06:25:00.340Z,5.60
2022-10-28T06:28:05.772Z,5.95
2022-10-28T06:31:11.704Z,5.47
2022-10-28T06:34:13.839Z,8.68
2022-10-28T06:37:16.073Z,8.10
2022-10-28T06:40:18.228Z,6.43
2022-10-28T06:43:20.415Z,5.00
2022-10-28T06:46:22.628Z,8.63
2022-10-28T06:49:26.692Z,6.40
2022-10-28T06:52:28.894Z,7.87
2022-10-28T06:55:31.080Z,6.18
2022-10-28T06:58:33.263Z,9.43
2022-10-28T07:01:35.465Z,8.40
2022-10-28T07:04:37.992Z,6.60
2022-10-28T07:07:40.201Z,8.00
2022-10-28T07:10:42.656Z,5.93
2022-10-28T07:13:46.670Z,6.03
2022-10-28T07:16:51.067Z,8.50
2022-10-28T07:19:53.287Z,7.87
2022-10-28T07:22:56.997Z,7.47
2022-10-28T07:25:59.203Z,8.65
2022-10-28T07:29:01.438Z,6.57
2022-10-28T07:32:03.713Z,6.12
2022-10-28T07:35:06.118Z,6.80
2022-10-28T07:38:08.704Z,7.60
2022-10-28T07:41:10.934Z,7.28
2022-10-28T07:44:13.786Z,25.33
2022-10-28T07:47:17.647Z,26.50
2022-10-28T07:50:20.069Z,11.77
2022-10-28T07:53:24.837Z,10.25
2022-10-28T07:56:29.958Z,9.40
2022-10-28T07:59:32.153Z,9.23
2022-10-28T08:02:34.347Z,9.70
2022-10-28T08:05:36.531Z,8.45
2022-10-28T08:08:39.159Z,9.63
2022-10-28T08:11:41.326Z,11.02
2022-10-28T08:14:43.548Z,9.85
2022-10-28T08:17:51.461Z,7.03
2022-10-28T08:20:53.911Z,10.85
2022-10-28T08:23:56.082Z,7.05
2022-10-28T08:26:58.238Z,5.95
2022-10-28T08:30:00.432Z,6.35
2022-10-28T08:33:02.656Z,10.02
2022-10-28T08:36:05.559Z,8.35
2022-10-28T08:39:07.866Z,9.70
2022-10-28T08:42:47.770Z,7.85
2022-10-28T08:46:15.107Z,7.22
2022-10-28T08:49:20.920Z,6.93
2022-10-28T08:52:41.733Z,8.13
2022-10-28T08:55:46.245Z,8.27
2022-10-28T08:58:49.828Z,8.18
2022-10-28T09:02:00.142Z,9.10
2022-10-28T09:05:21.502Z,8.85
2022-10-28T09:08:28.729Z,7.37
2022-10-28T09:11:57.235Z,6.72
2022-10-28T09:15:35.301Z,12.90
2022-10-28T09:18:51.665Z,9.90
2022-10-28T09:22:06.985Z,9.52
2022-10-28T09:25:48.697Z,8.45
2022-10-28T09:29:13.676Z,10.55
2022-10-28T09:32:34.579Z,12.90
2022-10-28T09:35:42.856Z,13.43
2022-10-28T09:38:45.813Z,11.57
2022-10-28T09:41:49.275Z,6.47
2022-10-28T09:44:58.164Z,11.07
2022-10-28T09:48:11.215Z,11.55
2022-10-28T09:51:27.289Z,14.05
2022-10-28T09:54:34.468Z,9.50
2022-10-28T09:57:36.616Z,11.63
2022-10-28T10:00:38.943Z,8.93
2022-10-28T10:03:41.863Z,8.70
2022-10-28T10:06:45.105Z,7.93
2022-10-28T10:09:47.364Z,9.23
2022-10-28T10:12:52.469Z,8.82
2022-10-28T10:16:02.254Z,8.75
2022-10-28T10:19:05.503Z,8.30
2022-10-28T10:22:07.659Z,8.65
2022-10-28T10:25:18.986Z,7.75
2022-10-28T10:31:27.401Z,7.43
2022-10-28T10:34:30.679Z,11.60
2022-10-28T10:37:36.522Z,13.32
2022-10-28T10:40:49.337Z,8.65
2022-10-28T10:43:51.572Z,13.25
2022-10-28T10:47:04.905Z,12.70
2022-10-28T10:50:29.732Z,12.73
2022-10-28T10:53:32.902Z,10.18
2022-10-28T10:56:35.025Z,8.60
2022-10-28T10:59:37.899Z,8.20
2022-10-28T11:02:40.281Z,8.88
2022-10-28T11:05:55.215Z,10.73
2022-10-28T11:09:18.844Z,7.85
2022-10-28T11:12:35.644Z,8.80
2022-10-28T11:15:37.857Z,17.62
2022-10-28T11:18:42.934Z,11.57
2022-10-28T11:21:45.129Z,14.32
2022-10-28T11:25:14.760Z,8.68
2022-10-28T11:28:47.093Z,14.63
2022-10-28T11:31:49.206Z,11.68
2022-10-28T11:35:08.208Z,12.15
2022-10-28T11:38:19.384Z,12.65
2022-10-28T11:41:21.576Z,12.27
2022-10-28T11:44:58.935Z,8.70
2022-10-28T11:48:27.373Z,10.65
2022-10-28T11:52:03.070Z,11.98
2022-10-28T11:55:18.724Z,9.35
2022-10-28T11:58:35.935Z,9.23
2022-10-28T12:02:02.887Z,12.95
2022-10-28T12:05:28.046Z,12.32
2022-10-28T12:08:48.591Z,14.93
2022-10-28T12:12:02.770Z,9.10
2022-10-28T12:15:16.543Z,10.23
2022-10-28T12:18:54.388Z,13.70
2022-10-28T12:22:05.838Z,12.93
2022-10-28T12:25:14.725Z,12.25
2022-10-28T12:28:21.369Z,10.05
2022-10-28T12:31:30.011Z,12.63
2022-10-28T12:34:40.002Z,16.08
2022-10-28T12:37:48.692Z,11.27
2022-10-28T12:41:06.711Z,12.57
2022-10-28T12:44:16.438Z,14.00
2022-10-28T12:47:23.509Z,14.77
2022-10-28T12:50:42.981Z,14.32
2022-10-28T12:53:51.829Z,15.40
2022-10-28T12:56:59.831Z,15.85
2022-10-28T13:00:14.393Z,14.13
2022-10-28T13:03:17.058Z,14.87
2022-10-28T13:06:32.197Z,19.75
2022-10-28T13:09:39.247Z,13.32
2022-10-28T13:13:13.433Z,14.18
2022-10-28T13:16:45.577Z,16.35
2022-10-28T13:20:12.628Z,10.43
2022-10-28T13:23:42.462Z,12.15
2022-10-28T13:26:45.263Z,12.52
2022-10-28T13:29:51.858Z,14.32
2022-10-28T13:33:08.901Z,15.18
2022-10-28T13:36:26.553Z,13.50
2022-10-28T13:39:28.651Z,11.43
2022-10-28T13:42:32.305Z,15.68
2022-10-28T13:45:54.667Z,15.43
2022-10-28T13:49:26.338Z,15.52
2022-10-28T13:52:28.557Z,11.82
2022-10-28T13:55:40.572Z,11.25
2022-10-28T13:59:16.272Z,18.70
2022-10-28T14:02:37.336Z,17.05
2022-10-28T14:05:39.580Z,11.90
2022-10-28T14:08:41.863Z,15.73
2022-10-28T14:11:44.097Z,19.50
2022-10-28T14:15:06.228Z,18.62
2022-10-28T14:18:42.974Z,17.12
2022-10-28T14:22:01.965Z,14.40
2022-10-28T14:25:45.257Z,17.92
2022-10-28T14:28:52.115Z,17.25
2022-10-28T14:31:54.364Z,24.17
2022-10-28T14:35:03.905Z,22.85
2022-10-28T14:38:31.142Z,17.98
2022-10-28T14:42:08.165Z,14.65
2022-10-28T14:45:47.909Z,17.60
2022-10-28T14:48:55.656Z,19.77
2022-10-28T14:52:05.464Z,17.27
2022-10-28T14:55:08.615Z,18.08
2022-10-28T14:58:23.774Z,18.62
2022-10-28T15:01:40.327Z,21.77
2022-10-28T15:04:45.406Z,23.87
2022-10-28T15:07:48.226Z,21.87
2022-10-28T15:10:50.597Z,21.17
2022-10-28T15:13:53.426Z,19.80
2022-10-28T15:16:56.201Z,23.45
2022-10-28T15:20:00.188Z,17.45
2022-10-28T15:23:29.516Z,21.15
2022-10-28T15:26:31.786Z,18.27
2022-10-28T15:29:34.069Z,21.37
2022-10-28T15:32:36.372Z,17.17
2022-10-28T15:35:38.853Z,16.80
2022-10-28T15:38:42.554Z,16.87
2022-10-28T15:41:49.169Z,21.20
2022-10-28T15:44:54.859Z,20.62
2022-10-28T15:47:58.839Z,17.75
2022-10-28T15:51:15.152Z,19.08
2022-10-28T15:54:20.535Z,21.50
2022-10-28T15:57:30.497Z,19.87
2022-10-28T16:00:36.854Z,18.77
2022-10-28T16:03:45.168Z,21.08
2022-10-28T16:06:47.644Z,18.00
2022-10-28T16:09:50.681Z,21.92
2022-10-28T16:12:52.836Z,17.92
2022-10-28T16:15:58.722Z,16.87
2022-10-28T16:19:09.562Z,16.23
2022-10-28T16:22:13.535Z,16.17
2022-10-28T16:25:18.151Z,24.05
2022-10-28T16:28:25.592Z,25.67
2022-10-28T16:31:29.448Z,32.60
2022-10-28T16:34:31.646Z,35.83
2022-10-28T16:37:34.507Z,18.35
2022-10-28T16:40:50.979Z,15.68
2022-10-28T16:43:55.921Z,15.88
2022-10-28T16:46:58.215Z,17.17
2022-10-28T16:50:00.391Z,16.45
2022-10-28T16:53:02.637Z,17.80
2022-10-28T16:56:08.643Z,17.33
2022-10-28T16:59:15.772Z,15.40
2022-10-28T17:02:29.844Z,19.00
2022-10-28T17:05:32.438Z,18.20
2022-10-28T17:09:01.187Z,23.90
2022-10-28T17:11:56.921Z,21.12
2022-10-28T17:14:59.093Z,19.95
2022-10-28T17:18:04.154Z,20.20
2022-10-28T17:21:06.483Z,20.88
2022-10-28T17:24:08.979Z,15.52
2022-10-28T17:27:13.453Z,15.75
2022-10-28T17:30:17.501Z,17.25
2022-10-28T17:33:19.867Z,19.85
2022-10-28T17:36:23.241Z,23.80
2022-10-28T17:39:26.612Z,16.95
2022-10-28T17:42:29.009Z,18.17
2022-10-28T17:45:31.194Z,14.48
2022-10-28T17:48:34.200Z,19.75
2022-10-28T17:51:36.881Z,18.73
2022-10-28T17:54:39.216Z,15.30
2022-10-28T17:57:41.650Z,14.35
2022-10-28T18:00:45.595Z,14.10
2022-10-28T18:03:50.773Z,15.50
2022-10-28T18:06:55.098Z,17.62
2022-10-28T18:09:57.502Z,12.15
2022-10-28T18:12:59.885Z,13.73
2022-10-28T18:16:10.362Z,13.38
2022-10-28T18:19:13.826Z,12.90
2022-10-28T18:22:16.450Z,14.87
2022-10-28T18:25:18.848Z,10.52
2022-10-28T18:28:23.508Z,18.25
2022-10-28T18:31:27.578Z,18.83
2022-10-28T18:34:30.289Z,16.27
2022-10-28T18:37:32.512Z,17.23
2022-10-28T18:40:34.899Z,17.33
2022-10-28T18:43:37.473Z,14.87
2022-10-28T18:46:40.403Z,15.65
2022-10-28T18:49:45.628Z,13.55
2022-10-28T18:52:52.046Z,17.70
2022-10-28T18:56:00.078Z,17.08
2022-10-28T18:59:04.244Z,24.17
2022-10-28T19:02:06.733Z,13.52
2022-10-28T19:05:09.311Z,15.50
2022-10-28T19:08:11.745Z,19.85
2022-10-28T19:11:13.971Z,15.27
2022-10-28T19:14:16.470Z,19.10
2022-10-28T19:17:18.995Z,15.50
2022-10-28T19:20:21.288Z,17.55
2022-10-28T19:23:23.669Z,16.62
2022-10-28T19:26:25.981Z,16.60
2022-10-28T19:29:28.296Z,22.65
2022-10-28T19:32:30.690Z,22.15
2022-10-28T19:35:34.265Z,26.45
2022-10-28T19:38:37.855Z,27.70
2022-10-28T19:41:40.285Z,22.33
2022-10-28T19:44:42.692Z,20.62
2022-10-28T19:47:44.840Z,21.65
2022-10-28T19:50:50.230Z,18.87
2022-10-28T19:54:00.016Z,19.85
2022-10-28T19:57:02.380Z,17.87
2022-10-28T20:00:05.548Z,18.00
2022-10-28T20:03:07.851Z,19.15
2022-10-28T20:06:14.769Z,19.55
2022-10-28T20:09:16.938Z,17.35
2022-10-28T20:12:19.135Z,16.45
2022-10-28T20:15:21.258Z,14.55
2022-10-28T20:18:23.864Z,16.50
2022-10-28T20:21:30.547Z,18.58
2022-10-28T20:24:32.705Z,15.88
2022-10-28T20:27:35.119Z,18.40
2022-10-28T20:30:37.285Z,19.10
2022-10-28T20:33:41.837Z,18.65
2022-10-28T20:36:44.281Z,16.15
2022-10-28T20:39:47.794Z,20.02
2022-10-28T20:42:50.100Z,15.82
2022-10-28T20:46:00.186Z,13.80
2022-10-28T20:49:02.701Z,24.10
2022-10-28T20:52:04.949Z,20.77
2022-10-28T20:55:08.081Z,18.37
2022-10-28T20:58:10.363Z,21.92
2022-10-28T21:01:18.599Z,23.58
2022-10-28T21:04:20.949Z,21.45
2022-10-28T21:07:23.110Z,20.65
2022-10-28T21:10:25.298Z,21.42
2022-10-28T21:13:27.489Z,18.65
2022-10-28T21:16:30.233Z,22.00
2022-10-28T21:19:32.574Z,18.05
2022-10-28T21:22:35.146Z,24.08
2022-10-28T21:25:37.270Z,23.45
2022-10-28T21:28:43.099Z,27.60
2022-10-28T21:31:45.236Z,19.48
2022-10-28T21:34:47.361Z,17.55
2022-10-28T21:37:49.917Z,19.95
2022-10-28T21:41:04.449Z,18.98
2022-10-28T21:44:06.675Z,19.73
2022-10-28T21:47:08.897Z,19.70
2022-10-28T21:50:11.191Z,20.15
2022-10-28T21:53:13.349Z,23.48
2022-10-28T21:56:18.868Z,17.42
2022-10-28T21:59:21.360Z,18.15
2022-10-28T22:02:23.593Z,20.65
2022-10-28T22:05:25.763Z,22.90
2022-10-28T22:08:28.217Z,20.52
2022-10-28T22:11:30.346Z,21.02
2022-10-28T22:14:32.675Z,19.80
2022-10-28T22:17:34.851Z,20.37
2022-10-28T22:20:37.005Z,23.10
2022-10-28T22:23:39.520Z,22.58
2022-10-28T22:26:41.698Z,19.30
2022-10-28T22:29:43.864Z,19.58
2022-10-28T22:32:46.005Z,19.23
2022-10-28T22:35:56.412Z,20.45
2022-10-28T22:38:58.596Z,18.62
2022-10-28T22:42:00.863Z,20.20
2022-10-28T22:45:03.079Z,24.92
2022-10-28T22:48:05.493Z,20.50
2022-10-28T22:51:09.644Z,21.40
2022-10-28T22:54:11.850Z,22.40
2022-10-28T22:57:14.004Z,20.85
2022-10-28T23:00:16.506Z,17.40
2022-10-28T23:03:19.103Z,22.75
2022-10-28T23:06:23.407Z,20.98
2022-10-28T23:09:25.596Z,27.17
2022-10-28T23:12:27.741Z,22.30
2022-10-28T23:15:30.097Z,20.65
2022-10-28T23:18:32.481Z,25.33
2022-10-28T23:21:34.886Z,20.55
2022-10-28T23:24:37.049Z,21.45
2022-10-28T23:27:40.222Z,20.62
2022-10-28T23:30:42.365Z,24.67
2022-10-28T23:33:44.505Z,21.73
2022-10-28T23:36:46.628Z,25.20
2022-10-28T23:39:48.750Z,24.30
2022-10-28T23:42:50.903Z,24.70
2022-10-28T23:45:53.097Z,23.02
2022-10-28T23:48:55.364Z,22.50
2022-10-28T23:51:57.506Z,22.35
2022-10-28T23:54:59.641Z,20.00
2022-10-28T23:58:01.864Z,26.33
